Terminal Aerodrome Forecast
Issued by NWS Glasgow, MT

Home | Current Version | Previous Version | Text Only | Print | Product List | Glossary On
Versions: 1 2 3 4 5 6 7 8 9 10 11 12 13
000
FTUS45 KGGW 251700
TAFGGW
TAF
KGGW 251720Z 2518/2618 12011KT P6SM FEW210
     FM260900 11007KT P6SM SCT180
     FM261200 00000KT P6SM BKN130=

USA.gov is the U.S. government's official web portal to all federal, state and local government web resources and services.